Dirección General De Aeronáutica Civil

Dirección Meteorológica de Chile - Servicios Climáticos

Informe General de Control de Calidad de la Estación

Listado de niveles de control de calidad para algunos parámetros
Estación Quimávida (340048)
Fecha de Revisión de los datos :

Elementos

Registros Niveles de Control Total
Nivel 0 Nivel 1 Nivel 2 Nivel 3 Errores Porcentaje
01 Temperatura del Aire Seco 80.069 0 . 0 . 0 . 0 . 0 0.00 %
02 Temperatura de Rocío 55.964 0 . 0 . 0 . 0 . 0 0.00 %
03 Humedad Relativa del Aire 57.768 0 . 0 . 0 . 0 . 0 0.00 %
04 Temperatura Máxima PM 10.863 0 . 0 . 16 0.15 % 0 . 16 0.15 %
05 Temperatura Mínima AM 10.813 0 . 0 . 20 0.18 % 0 . 20 0.18 %
06 Viento a 10 m. de Altura 57.739 0 . 0 . 0 . 0 . 0 0.00 %
07 Agua Caida, Acumulada 6 Horas 9.667 0 . 0 . 0 . 0 . 0 0.00 %
08 Presión Atm. a Nivel de Estación (QFE) 57.771 0 . 0 . 0 . 0 . 0 0.00 %
09 Presión Atm. a Nivel Medio del Mar (QFF) 57.771 0 . 0 . 0 . 0 . 0 0.00 %
10 Presión Atm. Estándar OACI (QNH) 57.771 0 . 0 . 0 . 0 . 0 0.00 %

Totales

456.196 . 0.0000 % . 0.0000 % . 0.0079 % . 0.0000 % 36 0.0079 %

Detalle de Errores Encontrados

Nivel Fecha del Dato Descripción Información Error Fecha Ingreso
2 1989-05-23 12:00:00 Temperatura 2.2 del 23-05-1989 12:00, Menor que la Mínima 2.3 23-05-1989 12:00 2.2 -- 2.3 2023-12-29 04:00:00
2 1989-05-27 12:00:00 Temperatura 6.8 del 27-05-1989 12:00, Menor que la Mínima 7.0 27-05-1989 12:00 6.8 -- 7.0 2023-12-29 04:00:00
2 1989-06-02 12:00:00 Temperatura 8.8 del 02-06-1989 12:00, Menor que la Mínima 9.0 02-06-1989 12:00 8.8 -- 9.0 2023-12-29 04:00:00
2 1989-06-28 12:00:00 Temperatura 6.8 del 28-06-1989 12:00, Menor que la Mínima 7.0 28-06-1989 12:00 6.8 -- 7.0 2023-12-29 04:01:00
2 1989-07-02 12:00:00 Temperatura -2.7 del 02-07-1989 12:00, Menor que la Mínima -2.4 02-07-1989 12:00 -2.7 -- -2.4 2023-12-29 04:01:00
2 1989-07-14 12:00:00 Temperatura 1.8 del 14-07-1989 12:00, Menor que la Mínima 2.0 14-07-1989 12:00 1.8 -- 2.0 2023-12-29 04:01:00
2 2011-05-18 12:00:00 Temperatura 0.4 del 18-05-2011 12:00, Menor que la Mínima 0.8 18-05-2011 12:00 0.4 -- 0.8 2023-11-13 02:58:00
2 2011-06-21 12:00:00 Temperatura 5.4 del 21-06-2011 12:00, Menor que la Mínima 7.0 21-06-2011 12:00 5.4 -- 7.0 2023-11-13 02:58:00
2 2011-06-23 12:00:00 Temperatura -2.0 del 23-06-2011 12:00, Menor que la Mínima -0.8 23-06-2011 12:00 -2.0 -- -0.8 2023-11-13 02:58:00
2 2011-06-24 12:00:00 Temperatura -2.8 del 24-06-2011 12:00, Menor que la Mínima -0.2 24-06-2011 12:00 -2.8 -- -0.2 2023-11-13 02:58:00
2 2011-06-25 12:00:00 Temperatura -3.4 del 25-06-2011 12:00, Menor que la Mínima 1.3 25-06-2011 12:00 -3.4 -- 1.3 2023-11-13 02:58:00
2 2011-06-26 12:00:00 Temperatura -6.6 del 26-06-2011 12:00, Menor que la Mínima -6.4 26-06-2011 12:00 -6.6 -- -6.4 2023-11-13 02:58:00
2 2011-06-27 12:00:00 Temperatura -6.5 del 27-06-2011 12:00, Menor que la Mínima -6.3 27-06-2011 12:00 -6.5 -- -6.3 2023-11-13 02:58:00
2 2011-06-28 12:00:00 Temperatura -2.8 del 28-06-2011 12:00, Menor que la Mínima 2.6 28-06-2011 12:00 -2.8 -- 2.6 2023-11-13 02:58:00
2 2012-05-21 12:00:00 Temperatura 5.2 del 21-05-2012 12:00, Menor que la Mínima 7.2 21-05-2012 12:00 5.2 -- 7.2 2013-08-19 19:00:00
2 2012-07-02 12:00:00 Temperatura 6.3 del 02-07-2012 12:00, Menor que la Mínima 15.1 02-07-2012 12:00 6.3 -- 15.1 2013-08-19 19:00:00
2 2020-01-10 12:00:00 Temperatura 11.6 del 10-01-2020 08:00, Menor que la Mínima 15.6 10-01-2020 12:00 11.6 -- 15.6 2020-01-10 12:20:00
2 2020-01-12 12:00:00 Temperatura 15.8 del 12-01-2020 04:00, Menor que la Mínima 18.4 12-01-2020 12:00 15.8 -- 18.4 2020-01-12 12:20:00
2 2020-01-27 12:00:00 Temperatura 15.2 del 27-01-2020 10:00, Menor que la Mínima 16.7 27-01-2020 12:00 15.2 -- 16.7 2020-01-28 22:10:00
2 2022-11-12 12:00:00 Temperatura 11.5 del 12-11-2022 10:00, Menor que la Mínima 13.1 12-11-2022 12:00 11.5 -- 13.1 2022-11-12 12:21:00
2 2000-07-07 00:00:00 Temperatura 10.4 del 06-07-2000 18:00, Mayor que la Máxima 9.8 07-07-2000 00:00 10.4 -- 9.8 2023-12-29 04:11:00
2 2000-07-23 00:00:00 Temperatura 11.0 del 22-07-2000 18:00, Mayor que la Máxima 9.2 23-07-2000 00:00 11.0 -- 9.2 2023-12-29 04:11:00
2 2003-03-20 00:00:00 Temperatura 16.8 del 20-03-2003 00:00, Mayor que la Máxima 16.2 20-03-2003 00:00 16.8 -- 16.2 2023-12-29 04:13:00
2 2012-03-26 00:00:00 Temperatura 30.1 del 25-03-2012 18:00, Mayor que la Máxima 29.3 26-03-2012 00:00 30.1 -- 29.3 2013-08-19 19:58:00
2 2012-03-31 00:00:00 Temperatura 30.3 del 30-03-2012 18:00, Mayor que la Máxima 30.2 31-03-2012 00:00 30.3 -- 30.2 2013-08-19 20:03:00
2 2012-04-16 00:00:00 Temperatura 25.2 del 15-04-2012 18:00, Mayor que la Máxima 24.2 16-04-2012 00:00 25.2 -- 24.2 2013-08-19 16:34:00
2 2012-05-02 00:00:00 Temperatura 22.2 del 01-05-2012 18:00, Mayor que la Máxima 19.4 02-05-2012 00:00 22.2 -- 19.4 2013-08-19 18:36:00
2 2012-05-05 00:00:00 Temperatura 25.1 del 04-05-2012 18:00, Mayor que la Máxima 23.1 05-05-2012 00:00 25.1 -- 23.1 2013-08-19 18:40:00
2 2012-07-29 00:00:00 Temperatura 14.4 del 28-07-2012 18:00, Mayor que la Máxima 13.4 29-07-2012 00:00 14.4 -- 13.4 2013-08-19 19:33:00
2 2012-09-21 00:00:00 Temperatura 21.4 del 20-09-2012 18:00, Mayor que la Máxima 19.3 21-09-2012 00:00 21.4 -- 19.3 2013-08-19 20:38:00
2 2012-09-23 00:00:00 Temperatura 26.3 del 22-09-2012 18:00, Mayor que la Máxima 24.4 23-09-2012 00:00 26.3 -- 24.4 2013-08-19 20:39:00
2 2013-05-31 00:00:00 Temperatura 16.4 del 30-05-2013 18:00, Mayor que la Máxima 16.2 31-05-2013 00:00 16.4 -- 16.2 2018-03-01 18:43:00
2 2020-01-25 00:00:00 Temperatura 34.1 del 24-01-2020 21:00, Mayor que la Máxima 32.6 25-01-2020 00:00 34.1 -- 32.6 2020-01-28 21:30:00
2 2020-09-23 00:00:00 Temperatura 26.7 del 22-09-2020 19:00, Mayor que la Máxima 26.6 23-09-2020 00:00 26.7 -- 26.6 2020-09-23 00:20:00
2 2022-03-23 00:00:00 Temperatura 27.6 del 22-03-2022 20:00, Mayor que la Máxima 15.8 23-03-2022 00:00 27.6 -- 15.8 2022-03-23 00:21:00
2 2022-04-01 00:00:00 Temperatura 27.8 del 31-03-2022 20:00, Mayor que la Máxima 16.3 01-04-2022 00:00 27.8 -- 16.3 2022-04-01 00:21:00
Errores del Nivel 36
Informe generado el 17-07-2024 14:30
Requerimiento: RE6001